Time;durP1;ratioP1;P1;durP2;ratioP2;P2;SDS_P1;SDS_P2;PMS_P1;PMS_P2;Temp;Humidity;BMP_temperature;BMP_pressure;BME280_temperature;BME280_humidity;BME280_pressure;Samples;Min_cycle;Max_cycle;Signal;HPM_P1;HPM_P2
2021/07/30 00:00:00;;;;;;;13.40;5.70;;;16.70;89.30;;;;;;4991220;28;20428;-74
2021/07/30 00:02:26;;;;;;;7.73;4.87;;;16.70;89.90;;;;;;4989135;28;20183;-74
2021/07/30 00:04:52;;;;;;;10.13;6.10;;;16.60;90.10;;;;;;4985555;28;20198;-75
2021/07/30 00:07:17;;;;;;;10.77;5.70;;;16.60;90.30;;;;;;4986874;28;20254;-75
2021/07/30 00:09:43;;;;;;;19.40;5.40;;;16.70;90.20;;;;;;4984024;28;20652;-75
2021/07/30 00:12:09;;;;;;;8.73;4.90;;;16.70;90.20;;;;;;4983803;28;20188;-73
2021/07/30 00:14:34;;;;;;;8.70;5.30;;;16.70;89.50;;;;;;4990618;28;20216;-73
2021/07/30 00:17:00;;;;;;;7.47;4.30;;;16.70;89.00;;;;;;4992425;28;20674;-74
2021/07/30 00:19:26;;;;;;;7.50;4.57;;;16.70;88.60;;;;;;4991908;28;20186;-75
2021/07/30 00:21:51;;;;;;;7.97;4.53;;;16.70;87.60;;;;;;4990937;28;20186;-73
2021/07/30 00:24:17;;;;;;;9.33;5.30;;;16.70;87.70;;;;;;4989644;28;20229;-73
2021/07/30 00:26:43;;;;;;;8.70;5.50;;;16.80;89.30;;;;;;4990388;28;20193;-74
2021/07/30 00:29:09;;;;;;;7.90;5.03;;;16.80;89.20;;;;;;4991020;28;20563;-75
2021/07/30 00:31:35;;;;;;;9.27;5.57;;;16.70;89.60;;;;;;4992980;28;20417;-74
2021/07/30 00:34:00;;;;;;;7.70;5.07;;;16.60;89.70;;;;;;4991283;28;20301;-75
2021/07/30 00:36:26;;;;;;;8.57;5.33;;;16.60;89.70;;;;;;4991478;28;20213;-74
2021/07/30 00:38:52;;;;;;;8.20;4.90;;;16.60;89.70;;;;;;4991106;28;20222;-75
2021/07/30 00:41:17;;;;;;;8.27;4.97;;;16.50;89.70;;;;;;4990847;28;20195;-75
2021/07/30 00:43:43;;;;;;;8.63;5.10;;;16.50;89.70;;;;;;4983292;28;20578;-75
2021/07/30 00:46:09;;;;;;;7.80;4.60;;;16.50;89.90;;;;;;4988557;28;20187;-74
2021/07/30 00:48:36;;;;;;;8.83;5.20;;;16.40;90.00;;;;;;4991582;28;20205;-74
2021/07/30 00:51:01;;;;;;;7.70;5.60;;;16.20;90.20;;;;;;4991926;28;20236;-74
2021/07/30 00:53:28;;;;;;;8.80;5.60;;;16.20;90.60;;;;;;4991115;28;20433;-73
2021/07/30 00:55:57;;;;;;;8.87;5.70;;;16.10;90.60;;;;;;4984474;28;20205;-76
2021/07/30 00:58:25;;;;;;;5.33;4.47;;;16.10;90.60;;;;;;4987206;28;20477;-74
2021/07/30 01:00:51;;;;;;;7.73;5.17;;;16.10;90.40;;;;;;4985704;28;20425;-73
2021/07/30 01:03:17;;;;;;;7.23;4.70;;;16.10;90.40;;;;;;4987367;28;20455;-74
2021/07/30 01:05:44;;;;;;;10.57;5.53;;;16.10;90.50;;;;;;4985270;28;20432;-73
2021/07/30 01:08:10;;;;;;;12.57;5.10;;;16.10;90.60;;;;;;4988409;28;20460;-74
2021/07/30 01:10:36;;;;;;;8.40;5.40;;;16.20;90.80;;;;;;4991289;28;20421;-74
2021/07/30 01:13:02;;;;;;;6.70;4.80;;;16.20;90.80;;;;;;4984478;28;20182;-73
2021/07/30 01:15:28;;;;;;;8.27;5.53;;;16.30;90.30;;;;;;4988112;28;20364;-74
2021/07/30 01:17:53;;;;;;;6.07;4.30;;;16.40;90.20;;;;;;4985097;28;21005;-75
2021/07/30 01:20:23;;;;;;;8.10;4.53;;;16.40;90.30;;;;;;4989408;28;20313;-73
2021/07/30 01:22:57;;;;;;;9.33;5.17;;;16.40;89.70;;;;;;4989329;28;20569;-74
2021/07/30 01:25:24;;;;;;;10.50;4.67;;;16.30;89.70;;;;;;4984671;28;20438;-74
2021/07/30 01:27:50;;;;;;;6.07;4.60;;;16.20;90.10;;;;;;4988164;28;20768;-74
2021/07/30 01:30:18;;;;;;;14.40;5.33;;;16.10;90.40;;;;;;4989666;28;20441;-73
2021/07/30 01:32:45;;;;;;;8.27;5.10;;;16.00;91.00;;;;;;4993771;28;20432;-73
2021/07/30 01:35:11;;;;;;;7.87;4.60;;;15.90;91.30;;;;;;4988141;28;20472;-74
2021/07/30 01:37:37;;;;;;;9.17;5.00;;;15.90;91.10;;;;;;4992142;28;21136;-72
2021/07/30 01:40:05;;;;;;;8.70;5.33;;;15.90;91.00;;;;;;4992808;28;20418;-74
2021/07/30 01:42:30;;;;;;;8.63;5.00;;;15.90;90.70;;;;;;4994367;28;20521;-74
2021/07/30 01:44:56;;;;;;;5.57;4.13;;;15.90;90.60;;;;;;4985308;28;20523;-75
2021/07/30 01:47:22;;;;;;;8.77;4.90;;;15.90;90.60;;;;;;4990524;28;20218;-74
2021/07/30 01:49:49;;;;;;;8.90;5.13;;;15.90;90.50;;;;;;4987083;28;20755;-74
2021/07/30 01:52:16;;;;;;;8.07;5.20;;;16.00;90.70;;;;;;4982488;28;20421;-74
2021/07/30 01:54:41;;;;;;;9.77;5.27;;;16.00;90.70;;;;;;4989947;28;20472;-74
2021/07/30 01:57:07;;;;;;;8.80;5.17;;;16.00;90.30;;;;;;4990329;28;20849;-73
2021/07/30 01:59:33;;;;;;;11.10;5.90;;;16.00;90.40;;;;;;4984425;28;20188;-74
2021/07/30 02:01:59;;;;;;;6.40;4.93;;;16.00;90.50;;;;;;4989762;28;20696;-74
2021/07/30 02:04:24;;;;;;;8.10;4.70;;;16.00;90.70;;;;;;4982874;28;20436;-73
2021/07/30 02:06:50;;;;;;;7.67;4.47;;;16.00;90.70;;;;;;4987495;28;20218;-75
2021/07/30 02:09:16;;;;;;;10.13;5.33;;;15.90;90.80;;;;;;4989958;28;20193;-74
2021/07/30 02:11:53;;;;;;;9.23;5.00;;;15.80;91.10;;;;;;4990440;28;20558;-75
2021/07/30 02:14:24;;;;;;;6.50;4.60;;;15.80;91.30;;;;;;4986701;28;20220;-74
2021/07/30 02:16:53;;;;;;;8.10;5.37;;;15.80;91.40;;;;;;4990351;28;20503;-75
2021/07/30 02:19:20;;;;;;;8.23;4.83;;;15.80;91.10;;;;;;4989594;28;20470;-74
2021/07/30 02:21:50;;;;;;;8.07;5.07;;;15.70;91.30;;;;;;4983471;28;20904;-73
2021/07/30 02:24:16;;;;;;;10.00;5.73;;;15.70;91.30;;;;;;4983040;28;20437;-74
2021/07/30 02:26:42;;;;;;;10.90;5.27;;;15.70;91.40;;;;;;4981548;28;20426;-74
2021/07/30 02:29:08;;;;;;;8.50;5.13;;;15.60;91.60;;;;;;4984400;28;20421;-75
2021/07/30 02:31:33;;;;;;;9.13;5.47;;;15.60;91.50;;;;;;4985343;28;20216;-74
2021/07/30 02:33:59;;;;;;;10.00;5.50;;;15.70;91.50;;;;;;4981339;28;20851;-74
2021/07/30 02:36:25;;;;;;;8.40;5.50;;;15.70;91.60;;;;;;4984876;28;20611;-74
2021/07/30 02:38:51;;;;;;;10.47;5.17;;;15.70;91.60;;;;;;4987696;28;20718;-75
2021/07/30 02:41:17;;;;;;;11.03;5.07;;;15.70;91.40;;;;;;4989899;28;20418;-75
2021/07/30 02:43:46;;;;;;;8.73;5.53;;;15.70;91.50;;;;;;4989431;28;20273;-74
2021/07/30 02:46:16;;;;;;;8.07;4.70;;;15.70;91.20;;;;;;4982063;28;20449;-75
2021/07/30 02:48:45;;;;;;;9.83;6.20;;;15.80;91.00;;;;;;4988044;28;20491;-74
2021/07/30 02:51:12;;;;;;;7.20;4.50;;;15.90;90.30;;;;;;4979764;28;20427;-75
2021/07/30 02:53:39;;;;;;;8.57;4.80;;;15.80;90.50;;;;;;4986165;28;20500;-75
2021/07/30 02:56:05;;;;;;;7.67;4.70;;;15.70;90.30;;;;;;4978604;28;20468;-74
2021/07/30 02:58:31;;;;;;;10.23;5.40;;;15.70;90.50;;;;;;4984337;28;20507;-76
2021/07/30 03:00:58;;;;;;;9.90;5.77;;;15.70;90.50;;;;;;4983393;28;20925;-74
2021/07/30 03:03:24;;;;;;;8.97;5.30;;;15.60;90.50;;;;;;4988159;28;20242;-74
2021/07/30 03:05:50;;;;;;;8.17;5.00;;;15.60;90.70;;;;;;4990017;28;20525;-75
2021/07/30 03:08:16;;;;;;;8.10;4.67;;;15.50;90.80;;;;;;4982814;28;20449;-74
2021/07/30 03:10:42;;;;;;;6.90;5.00;;;15.50;90.90;;;;;;4990079;28;20183;-73
2021/07/30 03:13:08;;;;;;;11.17;5.63;;;15.50;91.10;;;;;;4990055;28;20280;-74
2021/07/30 03:15:33;;;;;;;7.73;5.40;;;15.50;91.30;;;;;;4988600;28;20547;-74
2021/07/30 03:17:59;;;;;;;10.10;5.43;;;15.40;91.50;;;;;;4987623;28;20215;-75
2021/07/30 03:20:25;;;;;;;8.33;5.13;;;15.50;91.30;;;;;;4993237;28;20179;-74
2021/07/30 03:22:50;;;;;;;6.57;5.23;;;15.50;91.40;;;;;;4993467;28;20193;-73
2021/07/30 03:25:16;;;;;;;8.30;5.40;;;15.40;91.60;;;;;;4993668;28;20186;-73
2021/07/30 03:27:42;;;;;;;9.30;5.70;;;15.40;91.80;;;;;;4993653;28;20217;-75
2021/07/30 03:30:12;;;;;;;11.00;5.97;;;15.50;91.90;;;;;;4993550;28;20183;-74
2021/07/30 03:32:38;;;;;;;9.33;5.50;;;15.50;92.40;;;;;;4993807;28;20190;-74
2021/07/30 03:35:04;;;;;;;18.50;6.33;;;15.50;92.50;;;;;;4991535;28;20468;-75
2021/07/30 03:37:29;;;;;;;10.87;6.40;;;15.50;92.60;;;;;;4988702;28;20970;-74
2021/07/30 03:39:55;;;;;;;10.07;5.30;;;15.50;92.70;;;;;;4995374;28;20425;-74
2021/07/30 03:42:21;;;;;;;8.70;4.83;;;15.50;92.70;;;;;;4994270;28;20237;-74
2021/07/30 03:44:47;;;;;;;9.30;4.77;;;15.40;91.70;;;;;;4991170;28;20236;-74
2021/07/30 03:47:12;;;;;;;10.20;5.70;;;15.40;91.50;;;;;;4993575;28;20402;-74
2021/07/30 03:49:38;;;;;;;11.17;6.00;;;15.40;91.60;;;;;;4993255;28;20188;-72
2021/07/30 03:52:04;;;;;;;6.60;4.47;;;15.30;91.90;;;;;;4985707;28;20649;-73
2021/07/30 03:54:30;;;;;;;8.00;5.07;;;15.20;92.50;;;;;;5007020;28;20524;-74
2021/07/30 03:56:56;;;;;;;7.53;5.10;;;15.10;92.70;;;;;;5010911;28;20521;-74
2021/07/30 03:59:21;;;;;;;12.80;5.43;;;15.10;92.80;;;;;;4994751;28;20965;-74
2021/07/30 04:01:47;;;;;;;10.60;5.43;;;15.10;93.00;;;;;;4992082;28;20231;-75
2021/07/30 04:04:16;;;;;;;9.73;5.50;;;15.10;92.70;;;;;;4992372;28;20175;-74
2021/07/30 04:06:44;;;;;;;8.60;4.90;;;15.10;92.70;;;;;;4990173;28;20175;-75
2021/07/30 04:09:13;;;;;;;10.23;5.40;;;15.10;93.00;;;;;;4992548;28;21109;-72
2021/07/30 04:11:40;;;;;;;11.53;5.57;;;15.10;92.90;;;;;;4992819;28;20796;-74
2021/07/30 04:14:05;;;;;;;9.00;5.23;;;15.10;93.20;;;;;;4991948;28;20467;-75
2021/07/30 04:16:35;;;;;;;8.40;5.07;;;15.20;93.20;;;;;;4992301;28;20867;-75
2021/07/30 04:19:01;;;;;;;11.47;6.03;;;15.20;93.60;;;;;;4989823;28;20815;-74
2021/07/30 04:21:28;;;;;;;9.73;5.53;;;15.20;93.60;;;;;;4986882;28;20778;-75
2021/07/30 04:23:54;;;;;;;13.37;6.00;;;15.20;93.60;;;;;;4987338;28;20869;-74
2021/07/30 04:26:19;;;;;;;10.90;6.10;;;15.20;93.60;;;;;;4983579;28;20435;-74
2021/07/30 04:28:45;;;;;;;10.77;5.70;;;15.30;93.60;;;;;;4991785;28;20851;-74
2021/07/30 04:31:12;;;;;;;9.63;5.60;;;15.30;93.30;;;;;;4986748;28;20250;-75
2021/07/30 04:33:37;;;;;;;9.33;5.33;;;15.40;92.80;;;;;;4985368;28;20290;-74
2021/07/30 04:36:03;;;;;;;8.73;5.50;;;15.40;91.70;;;;;;4986801;28;20976;-74
2021/07/30 04:38:29;;;;;;;12.50;6.17;;;15.40;91.70;;;;;;4979046;28;20199;-74
2021/07/30 04:40:55;;;;;;;10.73;6.00;;;15.30;91.90;;;;;;4987306;28;20559;-74
2021/07/30 04:43:20;;;;;;;10.80;5.63;;;15.30;92.10;;;;;;4985785;28;20193;-76
2021/07/30 04:45:46;;;;;;;11.43;5.50;;;15.30;92.20;;;;;;4990331;28;20262;-75
2021/07/30 04:48:12;;;;;;;17.63;6.10;;;15.30;92.30;;;;;;4991231;28;20259;-76
2021/07/30 04:50:37;;;;;;;14.23;5.80;;;15.30;92.40;;;;;;4992045;28;20619;-76
2021/07/30 04:53:03;;;;;;;9.67;5.77;;;15.30;92.10;;;;;;4992306;28;20218;-77
2021/07/30 04:55:29;;;;;;;9.30;5.77;;;15.40;91.90;;;;;;4987488;28;20646;-76
2021/07/30 04:57:55;;;;;;;11.00;6.23;;;15.40;92.00;;;;;;4990591;28;20463;-76
2021/07/30 05:00:22;;;;;;;9.23;5.83;;;15.50;92.00;;;;;;4992578;28;20650;-77
2021/07/30 05:02:50;;;;;;;8.80;5.83;;;15.50;92.00;;;;;;4994247;28;20186;-74
2021/07/30 05:05:16;;;;;;;9.67;6.47;;;15.60;91.30;;;;;;4986910;28;20480;-75
2021/07/30 05:07:43;;;;;;;8.90;5.87;;;15.60;91.30;;;;;;4994651;28;20434;-75
2021/07/30 05:10:09;;;;;;;12.53;6.37;;;15.70;91.10;;;;;;4993960;28;20282;-76
2021/07/30 05:12:35;;;;;;;9.83;5.87;;;15.70;91.10;;;;;;4992402;28;20419;-74
2021/07/30 05:15:01;;;;;;;9.20;6.33;;;15.70;91.10;;;;;;4992435;28;20477;-72
2021/07/30 05:17:26;;;;;;;12.63;7.17;;;15.70;91.10;;;;;;4984298;28;20567;-73
2021/07/30 05:19:52;;;;;;;11.00;6.53;;;15.70;91.10;;;;;;4989465;28;20410;-73
2021/07/30 05:22:18;;;;;;;12.40;6.43;;;15.70;91.20;;;;;;4991922;28;20599;-74
2021/07/30 05:24:44;;;;;;;11.33;6.03;;;15.90;91.00;;;;;;4991310;28;20209;-75
2021/07/30 05:27:09;;;;;;;11.23;6.73;;;15.90;90.80;;;;;;4989473;28;20207;-74
2021/07/30 05:29:38;;;;;;;10.07;6.30;;;16.00;90.90;;;;;;4985498;28;20237;-73
2021/07/30 05:32:06;;;;;;;11.13;6.50;;;16.00;90.70;;;;;;4992740;28;20178;-75
2021/07/30 05:34:32;;;;;;;9.73;6.30;;;16.10;90.50;;;;;;4990465;28;20551;-74
2021/07/30 05:36:58;;;;;;;10.23;6.93;;;16.20;90.40;;;;;;4988012;28;20696;-74
2021/07/30 05:39:24;;;;;;;15.43;7.70;;;16.40;90.30;;;;;;4991602;28;20437;-75
2021/07/30 05:41:49;;;;;;;12.40;6.80;;;16.40;89.70;;;;;;4991583;28;20267;-75
2021/07/30 05:44:15;;;;;;;11.63;6.50;;;16.40;90.00;;;;;;4983134;28;20240;-75
2021/07/30 05:46:41;;;;;;;11.00;7.13;;;16.50;89.70;;;;;;4991321;28;20255;-75
2021/07/30 05:49:07;;;;;;;13.73;7.07;;;16.70;88.70;;;;;;4991101;28;20186;-74
2021/07/30 05:51:37;;;;;;;11.70;6.10;;;16.70;88.40;;;;;;4991113;28;20487;-75
2021/07/30 05:54:03;;;;;;;13.30;7.07;;;16.70;88.60;;;;;;4989227;28;20188;-74
2021/07/30 05:56:29;;;;;;;14.17;7.20;;;16.80;88.40;;;;;;4983420;28;20413;-73
2021/07/30 05:58:56;;;;;;;11.63;6.50;;;16.80;88.30;;;;;;4991246;28;20942;-74
2021/07/30 06:01:21;;;;;;;11.37;7.10;;;16.90;88.00;;;;;;4991148;28;20425;-72
2021/07/30 06:03:47;;;;;;;10.87;7.00;;;17.00;87.70;;;;;;4990380;28;20418;-74
2021/07/30 06:06:13;;;;;;;11.13;6.80;;;17.00;87.70;;;;;;4991305;28;20519;-74
2021/07/30 06:08:40;;;;;;;10.33;6.73;;;17.10;87.70;;;;;;4993867;28;20245;-74
2021/07/30 06:11:06;;;;;;;17.43;7.63;;;17.20;87.00;;;;;;4995139;28;20424;-73
2021/07/30 06:13:32;;;;;;;14.43;6.63;;;17.30;86.50;;;;;;4990731;28;20218;-74
2021/07/30 06:15:57;;;;;;;11.80;6.77;;;17.30;86.90;;;;;;4990474;28;20340;-75
2021/07/30 06:18:23;;;;;;;10.03;6.00;;;17.40;86.50;;;;;;4983512;28;20210;-74
2021/07/30 06:20:50;;;;;;;17.97;7.00;;;17.40;86.50;;;;;;4992058;28;20189;-74
2021/07/30 06:23:15;;;;;;;9.67;5.83;;;17.60;85.90;;;;;;4991617;28;20673;-74
2021/07/30 06:25:41;;;;;;;12.43;6.33;;;17.70;85.60;;;;;;4991775;28;20422;-73
2021/07/30 06:28:07;;;;;;;10.90;7.20;;;17.80;85.30;;;;;;4991266;28;20234;-72
2021/07/30 06:30:32;;;;;;;11.07;6.20;;;18.00;84.90;;;;;;4991320;28;20191;-74
2021/07/30 06:32:58;;;;;;;17.47;6.40;;;18.10;84.70;;;;;;4991630;28;20186;-76
2021/07/30 06:35:26;;;;;;;12.70;6.70;;;18.20;84.30;;;;;;4990765;28;20219;-74
2021/07/30 06:37:52;;;;;;;9.93;5.80;;;18.30;83.80;;;;;;4990383;28;20208;-76
2021/07/30 06:40:17;;;;;;;10.20;6.50;;;18.40;83.70;;;;;;4989984;28;20427;-74
2021/07/30 06:42:43;;;;;;;10.43;5.87;;;18.50;82.70;;;;;;4988802;28;20270;-74
2021/07/30 06:45:09;;;;;;;8.07;5.70;;;18.70;81.80;;;;;;4990105;28;20273;-76
2021/07/30 06:47:36;;;;;;;10.13;6.00;;;18.80;81.10;;;;;;4990398;28;20251;-75
2021/07/30 06:50:03;;;;;;;8.30;5.30;;;18.80;81.10;;;;;;4990576;28;20377;-75
2021/07/30 06:52:31;;;;;;;8.97;6.30;;;18.90;80.60;;;;;;4990336;28;20430;-74
2021/07/30 06:54:57;;;;;;;10.20;5.33;;;19.00;79.00;;;;;;4993439;28;20465;-75
2021/07/30 06:57:23;;;;;;;10.60;5.67;;;19.00;79.30;;;;;;4993745;28;20491;-74
2021/07/30 06:59:49;;;;;;;7.83;5.40;;;19.10;79.20;;;;;;4993906;28;20478;-73
2021/07/30 07:02:16;;;;;;;11.60;5.90;;;19.20;79.30;;;;;;4994276;28;20267;-75
2021/07/30 07:04:41;;;;;;;11.13;5.40;;;19.30;79.20;;;;;;4993340;28;20900;-75
2021/07/30 07:07:07;;;;;;;10.03;5.77;;;19.50;78.90;;;;;;4994128;28;20456;-75
2021/07/30 07:09:33;;;;;;;16.00;7.03;;;19.60;78.70;;;;;;4994287;28;20217;-74
2021/07/30 07:12:01;;;;;;;13.83;6.73;;;19.60;78.70;;;;;;4992784;28;20736;-74
2021/07/30 07:14:28;;;;;;;14.07;6.73;;;19.70;78.10;;;;;;4993160;28;20213;-74
2021/07/30 07:16:54;;;;;;;7.77;5.47;;;19.90;77.70;;;;;;4988984;28;20434;-75
2021/07/30 07:19:20;;;;;;;16.43;6.10;;;20.00;75.80;;;;;;4993512;28;20920;-75
2021/07/30 07:21:45;;;;;;;12.00;6.43;;;20.00;75.70;;;;;;4993132;28;20186;-74
2021/07/30 07:24:11;;;;;;;14.80;6.23;;;20.10;75.50;;;;;;4993426;28;20664;-74
2021/07/30 07:26:38;;;;;;;11.20;6.50;;;20.10;75.50;;;;;;4994059;28;20556;-75
2021/07/30 07:29:04;;;;;;;13.53;6.13;;;20.20;75.20;;;;;;4993456;28;20270;-74
2021/07/30 07:31:30;;;;;;;10.73;6.10;;;20.30;75.40;;;;;;4994010;28;20453;-75
2021/07/30 07:33:56;;;;;;;10.10;5.90;;;20.40;75.70;;;;;;4993549;28;20449;-74
2021/07/30 07:36:22;;;;;;;11.00;5.20;;;20.50;75.80;;;;;;4993985;28;21032;-73
2021/07/30 07:38:48;;;;;;;12.30;6.13;;;20.50;75.90;;;;;;4992208;28;20965;-74
2021/07/30 07:41:14;;;;;;;11.00;5.93;;;20.50;76.10;;;;;;4993838;28;20429;-76
2021/07/30 07:43:40;;;;;;;10.93;5.50;;;20.60;76.10;;;;;;4992347;28;20497;-74
2021/07/30 07:46:06;;;;;;;8.90;6.07;;;20.70;75.80;;;;;;4993749;28;20769;-75
2021/07/30 07:48:31;;;;;;;12.73;5.80;;;20.80;73.70;;;;;;4993322;28;20204;-75
2021/07/30 07:50:57;;;;;;;11.57;5.70;;;21.00;73.90;;;;;;4992363;28;20351;-74
2021/07/30 07:53:23;;;;;;;10.60;5.70;;;21.10;73.30;;;;;;4991551;28;20192;-74
2021/07/30 07:55:58;;;;;;;10.27;5.93;;;21.20;73.00;;;;;;4993000;28;20211;-74
2021/07/30 07:58:24;;;;;;;12.03;5.90;;;21.20;73.60;;;;;;4993127;28;20233;-75
2021/07/30 08:00:49;;;;;;;9.90;5.83;;;21.30;73.30;;;;;;4991998;28;20765;-73
2021/07/30 08:03:15;;;;;;;10.67;5.50;;;21.40;72.70;;;;;;4991992;28;20182;-74
2021/07/30 08:05:40;;;;;;;9.93;5.43;;;21.50;72.40;;;;;;4992068;28;20191;-75
2021/07/30 08:08:06;;;;;;;8.23;5.20;;;21.60;72.70;;;;;;4991958;28;20239;-74
2021/07/30 08:10:33;;;;;;;9.17;6.20;;;21.70;70.50;;;;;;4991601;28;20184;-74
2021/07/30 08:12:59;;;;;;;9.60;5.93;;;21.80;69.40;;;;;;4992990;28;20193;-74
2021/07/30 08:15:24;;;;;;;7.90;5.03;;;21.90;68.80;;;;;;4992590;28;20829;-74
2021/07/30 08:17:50;;;;;;;8.67;4.90;;;22.00;69.10;;;;;;4992793;28;20891;-74
2021/07/30 08:20:16;;;;;;;10.87;5.90;;;22.10;68.20;;;;;;4992747;28;20185;-73
2021/07/30 08:22:43;;;;;;;12.43;5.80;;;22.20;68.20;;;;;;4993096;28;20238;-75
2021/07/30 08:25:10;;;;;;;9.07;5.70;;;22.30;68.20;;;;;;4991829;28;20190;-74
2021/07/30 08:27:36;;;;;;;8.30;5.47;;;22.50;67.30;;;;;;4991327;28;20950;-75
2021/07/30 08:30:03;;;;;;;11.37;6.10;;;22.50;66.70;;;;;;4987885;28;20444;-73
2021/07/30 08:32:28;;;;;;;11.47;6.23;;;22.60;67.20;;;;;;4989975;28;20205;-75
2021/07/30 08:34:54;;;;;;;7.73;5.10;;;22.70;67.90;;;;;;4987632;28;20472;-72
2021/07/30 08:37:20;;;;;;;9.20;5.90;;;22.70;66.70;;;;;;4992227;28;20750;-75
2021/07/30 08:39:45;;;;;;;9.70;5.67;;;22.80;66.30;;;;;;4991890;28;20182;-74
2021/07/30 08:42:13;;;;;;;10.77;5.97;;;22.90;66.10;;;;;;4991170;28;20181;-75
2021/07/30 08:44:39;;;;;;;9.70;5.53;;;23.00;66.00;;;;;;4999483;28;20211;-75
2021/07/30 08:47:05;;;;;;;6.90;4.83;;;23.10;66.60;;;;;;5009654;28;20638;-74
2021/07/30 08:49:34;;;;;;;8.57;5.37;;;23.10;66.00;;;;;;4996855;28;20571;-74
2021/07/30 08:52:07;;;;;;;7.07;5.20;;;23.20;66.40;;;;;;4992484;28;20190;-76
2021/07/30 08:54:34;;;;;;;10.83;6.00;;;23.30;63.10;;;;;;4992059;28;21041;-75
2021/07/30 08:57:00;;;;;;;10.07;6.10;;;23.50;62.30;;;;;;4989307;28;20523;-73
2021/07/30 08:59:26;;;;;;;9.83;6.40;;;23.70;62.60;;;;;;4990444;28;20428;-73
2021/07/30 09:01:53;;;;;;;8.50;5.20;;;23.70;60.70;;;;;;4990868;28;20415;-73
2021/07/30 09:04:26;;;;;;;10.50;5.23;;;23.80;61.30;;;;;;4985159;28;20250;-73
2021/07/30 09:06:56;;;;;;;7.17;5.47;;;23.90;61.30;;;;;;4987526;28;20515;-73
2021/07/30 09:09:23;;;;;;;11.47;6.23;;;23.90;61.00;;;;;;4991007;28;20499;-75
2021/07/30 09:11:56;;;;;;;11.43;5.50;;;24.10;59.90;;;;;;4987831;28;20463;-74
2021/07/30 09:14:41;;;;;;;8.70;5.77;;;24.00;60.70;;;;;;4989994;28;20476;-73
2021/07/30 09:17:07;;;;;;;8.73;5.60;;;24.00;61.30;;;;;;4987791;28;20962;-75
2021/07/30 09:19:33;;;;;;;7.73;5.07;;;24.00;61.30;;;;;;4988630;28;20959;-74
2021/07/30 09:22:07;;;;;;;6.70;5.17;;;24.00;61.90;;;;;;4987287;28;20431;-74
2021/07/30 09:24:37;;;;;;;9.47;5.57;;;24.10;61.00;;;;;;4983929;28;20439;-76
2021/07/30 09:27:05;;;;;;;11.10;6.00;;;24.10;61.20;;;;;;4987475;28;21067;-75
2021/07/30 09:29:32;;;;;;;7.60;5.40;;;24.20;61.90;;;;;;4984244;28;21278;-75
2021/07/30 09:31:59;;;;;;;8.73;5.37;;;24.30;61.20;;;;;;4986952;28;20435;-74
2021/07/30 09:34:32;;;;;;;9.67;5.57;;;24.30;60.90;;;;;;4984766;28;20822;-74
2021/07/30 09:37:03;;;;;;;10.07;5.77;;;24.40;61.30;;;;;;4988025;28;20473;-76
2021/07/30 09:39:32;;;;;;;9.90;5.90;;;24.40;60.90;;;;;;4988556;28;20438;-75
2021/07/30 09:42:17;;;;;;;8.23;5.43;;;24.50;60.60;;;;;;4986490;28;20427;-74
2021/07/30 09:45:00;;;;;;;8.23;5.47;;;24.50;61.00;;;;;;4984303;28;20440;-74
2021/07/30 09:47:33;;;;;;;11.00;6.17;;;24.60;60.90;;;;;;4984668;28;20464;-74
2021/07/30 09:50:08;;;;;;;8.70;5.60;;;24.70;61.00;;;;;;4986360;28;20525;-75
2021/07/30 09:52:40;;;;;;;7.77;5.70;;;24.80;60.10;;;;;;4981160;28;21135;-73
2021/07/30 09:55:11;;;;;;;11.70;6.40;;;24.80;61.20;;;;;;4985637;28;21011;-74
2021/07/30 09:57:39;;;;;;;9.47;5.80;;;24.90;60.60;;;;;;4979669;28;20511;-73
2021/07/30 10:00:15;;;;;;;10.93;6.47;;;25.00;60.70;;;;;;4982817;28;20523;-74
2021/07/30 10:02:43;;;;;;;13.57;6.57;;;25.10;60.60;;;;;;4987392;28;20489;-73
2021/07/30 10:05:10;;;;;;;15.20;6.60;;;25.20;60.00;;;;;;4982311;28;20434;-75
2021/07/30 10:07:38;;;;;;;9.00;6.53;;;25.40;59.60;;;;;;4986084;28;20978;-74
2021/07/30 10:10:11;;;;;;;8.70;6.37;;;25.60;59.10;;;;;;4987480;28;20979;-74
2021/07/30 10:12:50;;;;;;;10.90;6.30;;;25.70;58.80;;;;;;4984084;28;20435;-74
2021/07/30 10:15:17;;;;;;;8.97;6.40;;;26.00;58.10;;;;;;4988196;28;20531;-76
2021/07/30 10:17:46;;;;;;;10.33;6.40;;;25.90;57.80;;;;;;4990792;28;20473;-74
2021/07/30 10:20:14;;;;;;;9.10;5.83;;;25.90;58.20;;;;;;4990810;28;20415;-74
2021/07/30 10:22:58;;;;;;;9.83;6.10;;;26.20;58.40;;;;;;4990468;28;20425;-75
2021/07/30 10:25:39;;;;;;;9.77;6.23;;;26.40;58.00;;;;;;4989242;28;20489;-74
2021/07/30 10:28:18;;;;;;;10.73;6.43;;;26.40;58.00;;;;;;4985269;28;20886;-74
2021/07/30 10:30:54;;;;;;;10.60;6.40;;;26.30;58.40;;;;;;4992056;28;20489;-74
2021/07/30 10:33:36;;;;;;;10.70;6.50;;;26.40;58.10;;;;;;4986400;28;20543;-74
2021/07/30 10:36:21;;;;;;;11.60;6.50;;;26.20;57.80;;;;;;4987856;28;20474;-74
2021/07/30 10:39:08;;;;;;;10.03;6.60;;;26.30;58.50;;;;;;4986920;28;20441;-75
2021/07/30 10:41:34;;;;;;;10.27;5.90;;;26.50;58.00;;;;;;4992817;28;20434;-75
2021/07/30 10:43:59;;;;;;;10.30;6.50;;;26.40;57.30;;;;;;4991932;28;20529;-74
2021/07/30 10:46:25;;;;;;;11.00;6.47;;;26.50;58.10;;;;;;4988658;28;20436;-75
2021/07/30 10:48:53;;;;;;;8.13;6.20;;;26.80;57.40;;;;;;4993926;28;20214;-74
2021/07/30 10:51:19;;;;;;;9.97;6.70;;;27.00;56.90;;;;;;4994013;28;20289;-75
2021/07/30 10:53:50;;;;;;;11.03;7.00;;;27.30;56.40;;;;;;4991979;28;20531;-73
2021/07/30 10:56:22;;;;;;;9.43;6.50;;;27.60;56.10;;;;;;4986335;28;20216;-74
2021/07/30 10:58:53;;;;;;;8.70;6.40;;;27.70;54.80;;;;;;4992545;28;20451;-72
2021/07/30 11:01:21;;;;;;;12.90;7.17;;;27.80;54.40;;;;;;4993242;28;20429;-73
2021/07/30 11:03:50;;;;;;;7.50;5.50;;;27.80;54.90;;;;;;4993460;28;20416;-75
2021/07/30 11:06:50;;;;;;;8.70;5.93;;;27.70;55.30;;;;;;4994377;28;20985;-75
2021/07/30 11:09:17;;;;;;;9.00;6.57;;;27.60;55.40;;;;;;4992204;28;20479;-75
2021/07/30 11:11:52;;;;;;;9.47;5.80;;;27.50;55.40;;;;;;4993869;28;20951;-73
2021/07/30 11:14:28;;;;;;;7.87;5.77;;;27.20;54.90;;;;;;4993090;28;20458;-75
2021/07/30 11:17:01;;;;;;;11.73;6.27;;;26.60;56.80;;;;;;4989676;28;20428;-75
2021/07/30 11:19:33;;;;;;;11.47;6.40;;;26.60;56.50;;;;;;4993700;28;20490;-74
2021/07/30 11:22:01;;;;;;;9.97;5.60;;;26.30;57.20;;;;;;4993266;28;20416;-74
2021/07/30 11:24:27;;;;;;;13.30;6.90;;;26.20;58.00;;;;;;4993278;28;20426;-75
2021/07/30 11:26:53;;;;;;;10.87;6.23;;;26.30;57.70;;;;;;4993456;28;20431;-76
2021/07/30 11:29:21;;;;;;;7.80;5.80;;;26.20;57.80;;;;;;4993317;28;20682;-74
2021/07/30 11:31:52;;;;;;;16.00;7.50;;;26.20;58.20;;;;;;4993726;28;20423;-74
2021/07/30 11:34:29;;;;;;;13.43;6.20;;;26.40;57.60;;;;;;4991374;28;20574;-74
2021/07/30 11:36:56;;;;;;;11.47;7.20;;;26.70;57.20;;;;;;4987492;28;20451;-75
2021/07/30 11:39:43;;;;;;;10.00;5.90;;;26.90;57.30;;;;;;4983806;28;20543;-75
2021/07/30 11:42:30;;;;;;;11.10;6.20;;;27.30;55.70;;;;;;4992752;28;20530;-74
2021/07/30 11:44:59;;;;;;;8.70;6.23;;;27.20;56.00;;;;;;4992723;28;20797;-73
2021/07/30 11:47:28;;;;;;;8.70;5.90;;;27.40;55.80;;;;;;4992533;28;20451;-74
2021/07/30 11:50:04;;;;;;;9.23;6.40;;;27.70;55.70;;;;;;4989522;28;20433;-74
2021/07/30 11:52:31;;;;;;;8.63;5.80;;;28.10;54.40;;;;;;4991391;28;20421;-75
2021/07/30 11:55:21;;;;;;;11.20;6.43;;;28.10;53.60;;;;;;4988016;28;20457;-74
2021/07/30 11:57:49;;;;;;;9.93;6.63;;;28.10;54.00;;;;;;4987231;28;20542;-74
2021/07/30 12:00:41;;;;;;;10.37;6.87;;;28.20;53.80;;;;;;4992195;28;20445;-74
2021/07/30 12:03:17;;;;;;;11.60;5.93;;;28.40;53.40;;;;;;4993907;28;20916;-75
2021/07/30 12:05:44;;;;;;;10.00;6.33;;;28.70;52.60;;;;;;4993548;28;20500;-76
2021/07/30 12:08:10;;;;;;;8.40;5.57;;;29.00;52.50;;;;;;4992011;28;20440;-75
2021/07/30 12:10:37;;;;;;;8.07;6.47;;;29.00;51.70;;;;;;4993233;28;20512;-74
2021/07/30 12:13:03;;;;;;;8.90;6.20;;;29.00;51.70;;;;;;4991660;28;20449;-74
2021/07/30 12:15:29;;;;;;;9.90;6.43;;;29.20;51.60;;;;;;4993068;28;20516;-74
2021/07/30 12:18:03;;;;;;;11.80;6.17;;;29.60;50.90;;;;;;4992038;28;20777;-73
2021/07/30 12:20:39;;;;;;;7.53;5.73;;;30.10;49.80;;;;;;4992666;28;20480;-75
2021/07/30 12:23:05;;;;;;;8.63;5.67;;;30.20;49.10;;;;;;4987014;28;20446;-74
2021/07/30 12:25:45;;;;;;;10.17;6.43;;;30.30;49.30;;;;;;4991962;28;20418;-75
2021/07/30 12:28:12;;;;;;;9.83;6.37;;;30.60;49.00;;;;;;4989534;28;20782;-74
2021/07/30 12:30:40;;;;;;;10.10;6.70;;;30.90;48.30;;;;;;4990307;28;20445;-74
2021/07/30 12:33:28;;;;;;;9.73;6.97;;;30.30;49.10;;;;;;4981624;28;20423;-74
2021/07/30 12:36:04;;;;;;;11.00;6.43;;;30.00;50.30;;;;;;4990609;28;21027;-75
2021/07/30 12:38:30;;;;;;;10.70;7.10;;;29.60;51.20;;;;;;5001489;28;21195;-74
2021/07/30 12:41:15;;;;;;;16.23;8.53;;;29.30;51.80;;;;;;4999934;28;20446;-73
2021/07/30 12:43:44;;;;;;;9.30;6.40;;;29.10;52.10;;;;;;4991185;28;20653;-75
2021/07/30 12:46:10;;;;;;;8.70;6.60;;;29.20;52.40;;;;;;4991840;28;20429;-75